Athol, Idaho
Current Conditions -  °F | °C
As of 8:35 PM on Friday 19 Dec 2014 (Local Time) from KCOE Reporting Station
Overcast Overcast  
Wind Chill: 33°   Ceiling: 2700
Heat Index: 39°   Visibility: 10mi
Dew Point: 36°   Wind: 9mph
Humidity: 87%   Direction: 220°SW
Pressure: 29.99"   Gusts: NA
Location:  47.95°N, 116.71°W
Report Text: KCOE 200435Z AUTO 22008KT 10SM BKN027 OVC032 04/02 A2999 RMK AO1
Loading
Personal Weather Stations






























Interactive Weather Map New forecast layout! Learn more

10-Day Weather Forecast

Advertisements
Track Severe Weather on mobile